createdAt,value
2018-04-04T00:00:48.040Z,100.0
2018-04-04T00:01:49.382Z,100.0
2018-04-04T00:02:50.779Z,100.0
2018-04-04T00:03:52.166Z,100.0
2018-04-04T00:04:53.568Z,100.0
2018-04-04T00:05:55.027Z,100.0
2018-04-04T00:06:56.351Z,100.0
2018-04-04T00:07:57.735Z,100.0
2018-04-04T00:08:59.126Z,100.0
2018-04-04T00:10:00.515Z,100.0
2018-04-04T00:11:01.901Z,100.0
2018-04-04T00:12:03.292Z,100.0
2018-04-04T00:13:04.682Z,100.0
2018-04-04T00:14:06.064Z,100.0
2018-04-04T00:15:07.565Z,100.0
2018-04-04T00:16:08.958Z,100.0
2018-04-04T00:17:10.351Z,100.0
2018-04-04T00:18:11.745Z,100.0
2018-04-04T00:19:13.142Z,100.0
2018-04-04T00:20:14.537Z,100.0
2018-04-04T00:21:15.936Z,100.0
2018-04-04T00:22:17.335Z,100.0
2018-04-04T00:23:18.728Z,100.0
2018-04-04T00:24:20.117Z,100.0
2018-04-04T00:25:21.510Z,100.0
2018-04-04T00:26:22.983Z,100.0
2018-04-04T00:27:24.323Z,100.0
2018-04-04T00:28:25.718Z,100.0
2018-04-04T00:29:27.117Z,100.0
2018-04-04T00:30:28.505Z,100.0
2018-04-04T00:31:29.896Z,100.0
2018-04-04T00:32:31.295Z,100.0
2018-04-04T00:33:32.677Z,100.0
2018-04-04T00:34:34.068Z,100.0
2018-04-04T00:35:35.605Z,100.0
2018-04-04T00:36:36.997Z,100.0
2018-04-04T00:37:38.381Z,100.0
2018-04-04T00:38:39.792Z,100.0
2018-04-04T00:39:41.181Z,100.0
2018-04-04T00:40:42.582Z,100.0
2018-04-04T00:41:43.988Z,100.0
2018-04-04T00:42:45.448Z,100.0
2018-04-04T00:43:46.837Z,100.0
2018-04-04T00:44:48.230Z,100.0
2018-04-04T00:45:49.626Z,100.0
2018-04-04T00:47:30.517Z,100.0
2018-04-04T00:48:31.904Z,100.0
2018-04-04T00:49:33.292Z,100.0
2018-04-04T00:50:34.677Z,100.0
2018-04-04T00:51:36.070Z,100.0
2018-04-04T00:52:37.460Z,100.0
2018-04-04T00:53:38.859Z,100.0
2018-04-04T00:54:40.297Z,100.0
2018-04-04T00:55:41.690Z,100.0
2018-04-04T00:56:43.106Z,100.0
2018-04-04T00:57:44.516Z,100.0
2018-04-04T00:58:45.907Z,100.0
2018-04-04T00:59:47.301Z,100.0
2018-04-04T01:00:48.685Z,100.0
2018-04-04T01:01:50.075Z,100.0
2018-04-04T01:02:51.456Z,100.0
2018-04-04T01:03:52.846Z,100.0
2018-04-04T01:04:54.236Z,100.0
2018-04-04T01:05:55.637Z,100.0
2018-04-04T01:06:57.027Z,100.0
2018-04-04T01:07:58.432Z,100.0
2018-04-04T01:08:59.829Z,100.0
2018-04-04T01:10:01.216Z,100.0
2018-04-04T01:11:02.608Z,100.0
2018-04-04T01:12:04.016Z,100.0
2018-04-04T01:13:05.396Z,100.0
2018-04-04T01:14:06.784Z,100.0
2018-04-04T01:15:08.401Z,100.0
2018-04-04T01:16:09.807Z,100.0
2018-04-04T01:17:11.188Z,100.0
2018-04-04T01:18:12.588Z,100.0
2018-04-04T01:19:13.969Z,100.0
2018-04-04T01:20:15.359Z,100.0
2018-04-04T01:21:16.750Z,100.0
2018-04-04T01:22:18.139Z,100.0
2018-04-04T01:23:19.523Z,100.0
2018-04-04T01:24:20.918Z,100.0
2018-04-04T01:25:22.330Z,100.0
2018-04-04T01:26:23.735Z,100.0
2018-04-04T01:27:25.106Z,100.0
2018-04-04T01:28:26.495Z,100.0
2018-04-04T01:29:27.889Z,100.0
2018-04-04T01:30:29.274Z,100.0
2018-04-04T01:31:30.665Z,100.0
2018-04-04T01:32:32.053Z,100.0
2018-04-04T01:33:33.444Z,100.0
2018-04-04T01:34:34.825Z,100.0
2018-04-04T01:35:36.254Z,100.0
2018-04-04T01:36:37.664Z,100.0
2018-04-04T01:37:39.047Z,100.0
2018-04-04T01:38:40.435Z,100.0
2018-04-04T01:39:41.828Z,100.0
2018-04-04T01:40:43.220Z,100.0
2018-04-04T01:41:44.606Z,100.0
2018-04-04T01:42:45.996Z,100.0
2018-04-04T01:43:47.383Z,100.0
2018-04-04T01:44:48.770Z,100.0
2018-04-04T01:46:29.668Z,100.0
2018-04-04T01:47:31.061Z,100.0
2018-04-04T01:48:32.448Z,100.0
2018-04-04T01:49:33.833Z,100.0
2018-04-04T01:50:35.225Z,100.0
2018-04-04T01:51:36.616Z,100.0
2018-04-04T01:52:38.010Z,100.0
2018-04-04T01:53:39.451Z,100.0
2018-04-04T01:54:40.889Z,100.0
2018-04-04T01:55:42.280Z,100.0
2018-04-04T01:56:43.670Z,100.0
2018-04-04T01:57:45.090Z,100.0
2018-04-04T01:58:46.479Z,100.0
2018-04-04T01:59:47.870Z,100.0
2018-04-04T02:00:49.263Z,100.0
2018-04-04T02:01:50.659Z,100.0
2018-04-04T02:02:52.068Z,100.0
2018-04-04T02:03:53.450Z,100.0
2018-04-04T02:04:54.852Z,100.0
2018-04-04T02:05:57.194Z,100.0
2018-04-04T02:06:59.290Z,100.0
2018-04-04T02:08:00.679Z,100.0
2018-04-04T02:09:02.070Z,100.0
2018-04-04T02:10:03.458Z,100.0
2018-04-04T02:11:04.840Z,100.0
2018-04-04T02:12:06.231Z,100.0
2018-04-04T02:13:07.616Z,100.0
2018-04-04T02:14:09.019Z,100.0
2018-04-04T02:15:10.410Z,100.0
2018-04-04T02:16:11.808Z,100.0
2018-04-04T02:17:13.295Z,100.0
2018-04-04T02:18:14.702Z,100.0
2018-04-04T02:19:16.122Z,100.0
2018-04-04T02:20:17.515Z,100.0
2018-04-04T02:21:18.922Z,100.0
2018-04-04T02:22:20.308Z,100.0
2018-04-04T02:23:21.702Z,100.0
2018-04-04T02:24:23.087Z,100.0
2018-04-04T02:25:24.478Z,100.0
2018-04-04T02:26:25.874Z,100.0
2018-04-04T02:27:27.253Z,100.0
2018-04-04T02:28:28.651Z,100.0
2018-04-04T02:29:30.060Z,100.0
2018-04-04T02:30:31.446Z,100.0
2018-04-04T02:31:32.833Z,100.0
2018-04-04T02:32:34.215Z,100.0
2018-04-04T02:33:35.617Z,100.0
2018-04-04T02:34:36.994Z,100.0
2018-04-04T02:35:38.398Z,100.0
2018-04-04T02:36:39.809Z,100.0
2018-04-04T02:37:41.224Z,100.0
2018-04-04T02:38:42.615Z,100.0
2018-04-04T02:39:44.011Z,100.0
2018-04-04T02:40:45.492Z,100.0
2018-04-04T02:41:46.889Z,100.0
2018-04-04T02:42:48.282Z,100.0
2018-04-04T02:43:49.673Z,100.0
2018-04-04T02:44:51.077Z,100.0
2018-04-04T02:45:52.487Z,100.0
2018-04-04T02:46:53.905Z,100.0
2018-04-04T02:47:55.294Z,100.0
2018-04-04T02:48:56.742Z,100.0
2018-04-04T02:49:58.137Z,100.0
2018-04-04T02:50:59.530Z,100.0
2018-04-04T02:52:00.928Z,100.0
2018-04-04T02:53:02.310Z,100.0
2018-04-04T02:54:03.717Z,100.0
2018-04-04T02:55:05.107Z,100.0
2018-04-04T02:56:06.498Z,100.0
2018-04-04T02:57:07.886Z,100.0
2018-04-04T02:58:09.349Z,100.0
2018-04-04T02:59:10.739Z,100.0
2018-04-04T03:00:12.146Z,100.0
2018-04-04T03:01:13.531Z,100.0
2018-04-04T03:02:14.912Z,100.0
2018-04-04T03:03:16.299Z,100.0
2018-04-04T03:04:17.692Z,100.0
2018-04-04T03:05:19.084Z,100.0
2018-04-04T03:06:20.467Z,100.0
2018-04-04T03:07:21.856Z,100.0
2018-04-04T03:08:23.258Z,100.0
2018-04-04T03:09:24.738Z,100.0
2018-04-04T03:10:26.133Z,100.0
2018-04-04T03:11:27.517Z,100.0
2018-04-04T03:12:28.917Z,100.0
2018-04-04T03:13:30.297Z,100.0
2018-04-04T03:14:31.688Z,100.0
2018-04-04T03:15:33.066Z,100.0
2018-04-04T03:16:34.471Z,100.0
2018-04-04T03:17:35.847Z,100.0
2018-04-04T03:18:37.234Z,100.0
2018-04-04T03:19:38.632Z,100.0
2018-04-04T03:20:40.020Z,100.0
2018-04-04T03:21:41.402Z,100.0
2018-04-04T03:23:22.321Z,100.0
2018-04-04T03:24:23.713Z,100.0
2018-04-04T03:25:25.156Z,100.0
2018-04-04T03:26:26.539Z,100.0
2018-04-04T03:27:27.932Z,100.0
2018-04-04T03:28:29.333Z,100.0
2018-04-04T03:29:30.730Z,100.0
2018-04-04T03:30:32.123Z,100.0
2018-04-04T03:31:33.505Z,100.0
2018-04-04T03:32:34.896Z,100.0
2018-04-04T03:33:36.283Z,100.0
2018-04-04T03:34:37.665Z,100.0
2018-04-04T03:35:39.052Z,100.0
2018-04-04T03:36:40.468Z,100.0
2018-04-04T03:37:41.969Z,100.0
2018-04-04T03:38:43.361Z,100.0
2018-04-04T03:39:44.845Z,100.0
2018-04-04T03:40:46.349Z,100.0
2018-04-04T03:41:47.848Z,100.0
2018-04-04T03:42:49.236Z,100.0
2018-04-04T03:43:50.634Z,100.0
2018-04-04T03:44:52.027Z,100.0
2018-04-04T03:45:53.416Z,100.0
2018-04-04T03:46:54.811Z,100.0
2018-04-04T03:47:56.191Z,100.0
2018-04-04T03:48:57.701Z,100.0
2018-04-04T03:49:59.092Z,100.0
2018-04-04T03:51:00.512Z,100.0
2018-04-04T03:52:01.904Z,100.0
2018-04-04T03:53:03.298Z,100.0
2018-04-04T03:54:04.687Z,100.0
2018-04-04T03:55:06.073Z,100.0
2018-04-04T03:56:07.464Z,100.0
2018-04-04T03:57:08.856Z,100.0
2018-04-04T03:58:10.248Z,100.0
2018-04-04T03:59:11.650Z,100.0
2018-04-04T04:00:13.035Z,100.0
2018-04-04T04:01:14.420Z,100.0
2018-04-04T04:02:15.803Z,100.0
2018-04-04T04:03:17.207Z,100.0
2018-04-04T04:04:18.605Z,100.0
2018-04-04T04:05:19.995Z,100.0
2018-04-04T04:06:21.388Z,100.0
2018-04-04T04:07:22.787Z,100.0
2018-04-04T04:08:24.184Z,100.0
2018-04-04T04:09:25.602Z,100.0
2018-04-04T04:10:26.988Z,100.0
2018-04-04T04:11:28.422Z,100.0
2018-04-04T04:13:09.292Z,100.0
2018-04-04T04:14:10.718Z,100.0
2018-04-04T04:15:12.110Z,100.0
2018-04-04T04:16:13.496Z,100.0
2018-04-04T04:17:14.898Z,100.0
2018-04-04T04:18:16.295Z,100.0
2018-04-04T04:19:17.692Z,100.0
2018-04-04T04:20:19.076Z,100.0
2018-04-04T04:21:20.462Z,100.0
2018-04-04T04:22:21.852Z,100.0
2018-04-04T04:23:23.240Z,100.0
2018-04-04T04:24:24.627Z,100.0
2018-04-04T04:25:26.013Z,100.0
2018-04-04T04:26:27.392Z,100.0
2018-04-04T04:27:28.778Z,100.0
2018-04-04T04:28:30.161Z,100.0
2018-04-04T04:29:31.604Z,100.0
2018-04-04T04:30:33.005Z,100.0
2018-04-04T04:31:34.387Z,100.0
2018-04-04T04:32:35.797Z,100.0
2018-04-04T04:33:37.193Z,100.0
2018-04-04T04:34:38.597Z,100.0
2018-04-04T04:35:39.993Z,100.0
2018-04-04T04:36:41.375Z,100.0
2018-04-04T04:37:42.868Z,100.0
2018-04-04T04:38:44.261Z,100.0
2018-04-04T04:39:45.697Z,100.0
2018-04-04T04:40:47.078Z,100.0
2018-04-04T04:41:48.472Z,100.0
2018-04-04T04:42:49.865Z,100.0
2018-04-04T04:43:51.263Z,100.0
2018-04-04T04:44:52.657Z,100.0
2018-04-04T04:45:54.036Z,100.0
2018-04-04T04:46:55.423Z,100.0
2018-04-04T04:47:56.819Z,100.0
2018-04-04T04:48:58.281Z,100.0
2018-04-04T04:49:59.670Z,100.0
2018-04-04T04:51:01.068Z,100.0
2018-04-04T04:52:02.476Z,100.0
2018-04-04T04:53:03.882Z,100.0
2018-04-04T04:54:05.307Z,100.0
2018-04-04T04:55:06.714Z,100.0
2018-04-04T04:56:08.124Z,100.0
2018-04-04T04:57:09.502Z,100.0
2018-04-04T04:58:10.929Z,100.0
2018-04-04T04:59:12.320Z,100.0
2018-04-04T05:00:13.716Z,100.0
2018-04-04T05:01:15.116Z,100.0
2018-04-04T05:03:19.142Z,100.0
2018-04-04T05:04:20.665Z,100.0
2018-04-04T05:05:22.157Z,100.0
2018-04-04T05:06:23.638Z,100.0
2018-04-04T05:07:25.071Z,100.0
2018-04-04T05:08:26.527Z,100.0
2018-04-04T05:09:27.946Z,100.0
2018-04-04T05:10:29.347Z,100.0
2018-04-04T05:11:30.830Z,100.0
2018-04-04T05:12:32.211Z,100.0
2018-04-04T05:13:33.607Z,100.0
2018-04-04T05:14:34.996Z,100.0
2018-04-04T05:15:36.388Z,100.0
2018-04-04T05:16:37.781Z,100.0
2018-04-04T05:17:39.179Z,100.0
2018-04-04T05:18:40.569Z,100.0
2018-04-04T05:19:41.977Z,100.0
2018-04-04T05:20:43.390Z,100.0
2018-04-04T05:21:44.773Z,100.0
2018-04-04T05:22:46.171Z,100.0
2018-04-04T05:23:47.570Z,100.0
2018-04-04T05:24:48.960Z,100.0
2018-04-04T05:25:50.353Z,100.0
2018-04-04T05:26:51.747Z,100.0
2018-04-04T05:27:53.144Z,100.0
2018-04-04T05:28:54.532Z,100.0
2018-04-04T05:29:55.912Z,100.0
2018-04-04T05:30:57.305Z,100.0
2018-04-04T05:31:58.718Z,100.0
2018-04-04T05:33:00.099Z,100.0
2018-04-04T05:34:01.492Z,100.0
2018-04-04T05:35:02.952Z,100.0
2018-04-04T05:36:04.288Z,100.0
2018-04-04T05:37:05.691Z,100.0
2018-04-04T05:38:07.174Z,100.0
2018-04-04T05:39:08.572Z,100.0
2018-04-04T05:40:09.962Z,100.0
2018-04-04T05:41:11.363Z,100.0
2018-04-04T05:42:12.743Z,100.0
2018-04-04T05:43:14.175Z,100.0
2018-04-04T05:44:15.510Z,100.0
2018-04-04T05:45:16.908Z,100.0
2018-04-04T05:46:18.356Z,100.0
2018-04-04T05:47:19.761Z,100.0
2018-04-04T05:48:21.148Z,100.0
2018-04-04T05:49:22.541Z,100.0
2018-04-04T05:50:23.941Z,100.0
2018-04-04T05:51:25.347Z,100.0
2018-04-04T05:52:26.748Z,100.0
2018-04-04T05:53:28.151Z,100.0
2018-04-04T05:54:29.594Z,100.0
2018-04-04T05:55:31.048Z,100.0
2018-04-04T05:56:32.440Z,100.0
2018-04-04T05:57:33.842Z,100.0
2018-04-04T05:58:35.254Z,100.0
2018-04-04T05:59:36.643Z,100.0
2018-04-04T06:00:38.077Z,100.0
2018-04-04T06:01:39.473Z,100.0
2018-04-04T06:02:40.857Z,100.0
2018-04-04T06:03:42.332Z,100.0
2018-04-04T06:04:43.721Z,100.0
2018-04-04T06:05:45.112Z,100.0
2018-04-04T06:06:46.504Z,100.0
2018-04-04T06:07:47.901Z,100.0
2018-04-04T06:08:49.292Z,100.0
2018-04-04T06:09:50.690Z,100.0
2018-04-04T06:10:52.075Z,100.0
2018-04-04T06:11:53.465Z,100.0
2018-04-04T06:12:54.849Z,100.0
2018-04-04T06:13:56.289Z,100.0
2018-04-04T06:14:57.650Z,100.0
2018-04-04T06:15:59.036Z,100.0
2018-04-04T06:17:00.433Z,100.0
2018-04-04T06:18:01.837Z,100.0
2018-04-04T06:19:03.244Z,100.0
2018-04-04T06:20:04.633Z,100.0
2018-04-04T06:21:06.040Z,100.0
2018-04-04T06:22:07.497Z,100.0
2018-04-04T06:23:08.892Z,100.0
2018-04-04T06:24:10.453Z,100.0
2018-04-04T06:25:11.888Z,100.0
2018-04-04T06:26:13.306Z,100.0
2018-04-04T06:27:14.706Z,100.0
2018-04-04T06:28:16.102Z,100.0
2018-04-04T06:29:17.499Z,100.0
2018-04-04T06:30:18.892Z,100.0
2018-04-04T06:31:20.294Z,100.0
2018-04-04T06:32:21.706Z,100.0
2018-04-04T06:33:23.102Z,100.0
2018-04-04T06:34:24.494Z,100.0
2018-04-04T06:35:26.120Z,100.0
2018-04-04T06:36:27.513Z,100.0
2018-04-04T06:37:28.909Z,100.0
2018-04-04T06:38:30.307Z,100.0
2018-04-04T06:39:31.705Z,100.0
2018-04-04T06:40:33.099Z,100.0
2018-04-04T06:41:34.487Z,100.0
2018-04-04T06:42:35.893Z,100.0
2018-04-04T06:43:37.292Z,100.0
2018-04-04T06:44:38.698Z,100.0
2018-04-04T06:45:40.097Z,100.0
2018-04-04T06:46:41.501Z,100.0
2018-04-04T06:47:42.928Z,100.0
2018-04-04T06:48:44.337Z,100.0
2018-04-04T06:49:45.944Z,100.0
2018-04-04T06:50:47.346Z,100.0
2018-04-04T06:51:48.777Z,100.0
2018-04-04T06:52:50.173Z,100.0
2018-04-04T06:53:51.580Z,100.0
2018-04-04T06:54:52.963Z,100.0
2018-04-04T06:55:54.486Z,100.0
2018-04-04T06:56:55.831Z,100.0
2018-04-04T06:57:57.283Z,100.0
2018-04-04T06:58:58.628Z,100.0
2018-04-04T07:00:00.033Z,100.0
2018-04-04T07:01:01.521Z,100.0
2018-04-04T07:02:02.976Z,100.0
2018-04-04T07:03:04.376Z,100.0
2018-04-04T07:04:05.792Z,100.0
2018-04-04T07:05:07.206Z,100.0
2018-04-04T07:06:08.615Z,100.0
2018-04-04T07:07:10.201Z,100.0
2018-04-04T07:08:11.586Z,100.0
2018-04-04T07:09:13.007Z,100.0
2018-04-04T07:10:14.400Z,100.0
2018-04-04T07:11:15.801Z,100.0
2018-04-04T07:12:17.214Z,100.0
2018-04-04T07:13:18.627Z,100.0
2018-04-04T07:14:20.052Z,100.0
2018-04-04T07:15:21.441Z,100.0
2018-04-04T07:16:22.842Z,100.0
2018-04-04T07:17:24.244Z,100.0
2018-04-04T07:18:25.739Z,100.0
2018-04-04T07:19:27.102Z,100.0
2018-04-04T07:20:28.549Z,100.0
2018-04-04T07:21:29.988Z,100.0
2018-04-04T07:22:31.399Z,100.0
2018-04-04T07:23:32.912Z,100.0
2018-04-04T07:24:34.370Z,100.0
2018-04-04T07:25:35.880Z,100.0
2018-04-04T07:26:37.284Z,100.0
2018-04-04T07:27:38.686Z,100.0
2018-04-04T07:28:40.841Z,100.0
2018-04-04T07:29:42.374Z,100.0
2018-04-04T07:30:43.793Z,100.0
2018-04-04T07:31:45.335Z,100.0
2018-04-04T07:32:46.789Z,100.0
2018-04-04T07:33:48.228Z,100.0
2018-04-04T07:34:49.624Z,100.0
2018-04-04T07:35:51.004Z,99.5
2018-04-04T07:36:52.416Z,99.4
2018-04-04T07:37:53.817Z,99.6
2018-04-04T07:38:55.235Z,98.6
2018-04-04T07:39:56.633Z,98.7
2018-04-04T07:40:58.144Z,99.0
2018-04-04T07:41:59.550Z,100.0
2018-04-04T07:43:00.983Z,100.0
2018-04-04T07:44:02.390Z,100.0
2018-04-04T07:45:03.885Z,99.8
2018-04-04T07:46:05.285Z,98.6
2018-04-04T07:47:06.910Z,98.8
2018-04-04T07:48:08.320Z,99.8
2018-04-04T07:49:09.712Z,100.0
2018-04-04T07:50:11.227Z,100.0
2018-04-04T07:51:12.633Z,100.0
2018-04-04T07:52:14.080Z,100.0
2018-04-04T07:53:15.492Z,100.0
2018-04-04T07:54:16.910Z,100.0
2018-04-04T07:55:18.326Z,100.0
2018-04-04T07:56:19.747Z,100.0
2018-04-04T07:57:21.140Z,100.0
2018-04-04T07:58:22.554Z,100.0
2018-04-04T07:59:24.016Z,100.0
2018-04-04T08:00:25.429Z,100.0
2018-04-04T08:01:26.882Z,99.2
2018-04-04T08:02:28.812Z,98.9
2018-04-04T08:03:30.248Z,98.6
2018-04-04T08:04:31.645Z,98.2
2018-04-04T08:05:33.051Z,97.9
2018-04-04T08:06:34.449Z,97.6
2018-04-04T08:07:35.834Z,97.6
2018-04-04T08:08:37.352Z,96.8
2018-04-04T08:09:38.794Z,96.3
2018-04-04T08:10:40.211Z,96.3
2018-04-04T08:11:41.619Z,96.1
2018-04-04T08:12:43.024Z,95.8
2018-04-04T08:13:44.436Z,95.9
2018-04-04T08:14:46.597Z,95.4
2018-04-04T08:15:47.387Z,95.1
2018-04-04T08:16:48.816Z,94.5
2018-04-04T08:17:50.199Z,94.3
2018-04-04T08:18:51.635Z,94.3
2018-04-04T08:19:53.050Z,94.6
2018-04-04T08:20:54.448Z,94.2
2018-04-04T08:21:55.849Z,94.1
2018-04-04T08:22:57.281Z,93.7
2018-04-04T08:23:58.788Z,93.5
2018-04-04T08:25:00.205Z,93.5
2018-04-04T08:26:01.839Z,92.9
2018-04-04T08:27:03.261Z,93.3
2018-04-04T08:28:04.837Z,93.4
2018-04-04T08:29:06.330Z,93.7
2018-04-04T08:30:07.727Z,93.4
2018-04-04T08:31:09.124Z,92.7
2018-04-04T08:32:10.550Z,93.1
2018-04-04T08:33:11.936Z,92.6
2018-04-04T08:34:13.430Z,93.6
2018-04-04T08:35:14.793Z,93.6
2018-04-04T08:36:16.263Z,93.6
2018-04-04T08:37:17.712Z,93.6
2018-04-04T08:38:19.081Z,93.4
2018-04-04T08:39:20.506Z,92.4
2018-04-04T08:40:21.897Z,93.1
2018-04-04T08:41:23.311Z,93.3
2018-04-04T08:42:24.699Z,93.9
2018-04-04T08:43:26.110Z,93.3
2018-04-04T08:44:27.517Z,92.9
2018-04-04T08:45:29.092Z,91.0
2018-04-04T08:46:30.759Z,89.8
2018-04-04T08:47:32.185Z,89.6
2018-04-04T08:48:33.587Z,89.3
2018-04-04T08:49:34.987Z,89.3
2018-04-04T08:50:36.384Z,89.7
2018-04-04T08:51:37.777Z,90.2
2018-04-04T08:52:39.186Z,90.7
2018-04-04T08:53:40.585Z,89.8
2018-04-04T08:54:41.980Z,88.6
2018-04-04T08:55:44.092Z,87.8
2018-04-04T08:56:45.508Z,88.0
2018-04-04T08:57:46.922Z,88.3
2018-04-04T08:58:48.320Z,87.5
2018-04-04T08:59:49.798Z,87.2
2018-04-04T09:00:52.229Z,86.2
2018-04-04T09:01:53.621Z,86.4
2018-04-04T09:02:55.023Z,85.8
2018-04-04T09:03:56.413Z,86.0
2018-04-04T09:04:57.809Z,85.5
2018-04-04T09:05:59.693Z,84.9
2018-04-04T09:07:01.119Z,85.1
2018-04-04T09:08:02.519Z,85.6
2018-04-04T09:09:03.906Z,85.7
2018-04-04T09:10:05.375Z,85.1
2018-04-04T09:11:06.832Z,84.3
2018-04-04T09:12:08.480Z,84.3
2018-04-04T09:13:09.990Z,84.6
2018-04-04T09:14:11.387Z,85.9
2018-04-04T09:15:12.775Z,85.9
2018-04-04T09:16:14.207Z,85.0
2018-04-04T09:17:15.581Z,85.2
2018-04-04T09:18:16.978Z,85.2
2018-04-04T09:19:18.366Z,86.0
2018-04-04T09:20:19.798Z,85.5
2018-04-04T09:21:21.185Z,84.4
2018-04-04T09:22:22.592Z,84.6
2018-04-04T09:23:24.001Z,84.7
2018-04-04T09:24:25.461Z,85.8
2018-04-04T09:25:26.873Z,85.4
2018-04-04T09:26:28.288Z,85.8
2018-04-04T09:27:29.680Z,86.5
2018-04-04T09:28:31.068Z,86.5
2018-04-04T09:29:32.470Z,86.9
2018-04-04T09:30:34.060Z,87.7
2018-04-04T09:31:35.450Z,86.5
2018-04-04T09:32:36.841Z,86.9
2018-04-04T09:33:38.296Z,86.7
2018-04-04T09:34:39.688Z,85.9
2018-04-04T09:35:41.143Z,86.9
2018-04-04T09:36:42.562Z,85.7
2018-04-04T09:37:43.988Z,84.9
2018-04-04T09:38:45.387Z,84.0
2018-04-04T09:39:46.784Z,82.8
2018-04-04T09:40:48.204Z,81.9
2018-04-04T09:41:49.591Z,82.0
2018-04-04T09:42:51.211Z,81.1
2018-04-04T09:43:52.618Z,81.1
2018-04-04T09:44:54.054Z,80.9
2018-04-04T09:45:55.467Z,80.0
2018-04-04T09:46:56.900Z,81.4
2018-04-04T09:48:37.881Z,81.5
2018-04-04T09:49:39.299Z,80.6
2018-04-04T09:50:40.694Z,80.8
2018-04-04T09:51:42.102Z,81.8
2018-04-04T09:52:43.568Z,82.3
2018-04-04T09:53:44.944Z,80.3
2018-04-04T09:54:46.343Z,80.6
2018-04-04T09:55:47.756Z,80.6
2018-04-04T09:56:49.166Z,79.4
2018-04-04T09:57:50.568Z,78.0
2018-04-04T09:58:51.964Z,78.4
2018-04-04T09:59:53.361Z,79.0
2018-04-04T10:00:54.796Z,79.6
2018-04-04T10:01:56.194Z,79.3
2018-04-04T10:02:57.796Z,78.5
2018-04-04T10:03:59.450Z,78.7
2018-04-04T10:05:00.858Z,79.9
2018-04-04T10:06:02.250Z,78.0
2018-04-04T10:07:03.797Z,78.3
2018-04-04T10:08:05.189Z,79.5
2018-04-04T10:09:06.591Z,79.0
2018-04-04T10:10:07.996Z,78.9
2018-04-04T10:11:09.397Z,78.6
2018-04-04T10:12:10.802Z,79.0
2018-04-04T10:13:12.197Z,78.7
2018-04-04T10:14:13.598Z,78.8
2018-04-04T10:15:15.050Z,78.4
2018-04-04T10:16:16.469Z,78.0
2018-04-04T10:17:17.864Z,78.3
2018-04-04T10:18:19.467Z,78.0
2018-04-04T10:19:20.857Z,78.3
2018-04-04T10:20:23.120Z,78.4
2018-04-04T10:21:24.558Z,77.8
2018-04-04T10:22:25.916Z,77.8
2018-04-04T10:23:27.370Z,77.2
2018-04-04T10:24:28.815Z,76.9
2018-04-04T10:25:30.218Z,77.0
2018-04-04T10:26:31.622Z,77.6
2018-04-04T10:27:33.012Z,75.3
2018-04-04T10:28:34.426Z,74.6
2018-04-04T10:29:35.810Z,73.7
2018-04-04T10:30:37.205Z,73.8
2018-04-04T10:31:38.615Z,73.8
2018-04-04T10:32:40.001Z,73.8
2018-04-04T10:33:41.400Z,73.6
2018-04-04T10:34:42.792Z,73.3
2018-04-04T10:35:44.198Z,73.3
2018-04-04T10:36:45.625Z,73.8
2018-04-04T10:37:47.104Z,74.0
2018-04-04T10:38:48.545Z,74.1
2018-04-04T10:39:49.909Z,74.0
2018-04-04T10:40:51.356Z,74.2
2018-04-04T10:41:53.508Z,73.6
2018-04-04T10:42:54.902Z,72.7
2018-04-04T10:43:56.331Z,73.3
2018-04-04T10:44:57.733Z,72.5
2018-04-04T10:45:59.126Z,72.1
2018-04-04T10:47:00.567Z,72.0
2018-04-04T10:48:01.963Z,72.7
2018-04-04T10:49:03.439Z,72.7
2018-04-04T10:50:04.839Z,71.3
2018-04-04T10:51:06.312Z,71.2
2018-04-04T10:52:07.738Z,71.1
2018-04-04T10:53:09.194Z,71.0
2018-04-04T10:54:10.650Z,71.6
2018-04-04T10:55:12.059Z,71.2
2018-04-04T10:56:13.467Z,71.2
2018-04-04T10:57:14.924Z,71.4
2018-04-04T10:58:16.315Z,70.9
2018-04-04T10:59:17.741Z,67.9
2018-04-04T11:00:19.257Z,66.6
2018-04-04T11:01:20.656Z,65.9
2018-04-04T11:02:22.056Z,64.2
2018-04-04T11:03:23.480Z,64.1
2018-04-04T11:04:24.900Z,62.6
2018-04-04T11:05:26.299Z,59.4
2018-04-04T11:06:27.700Z,57.8
2018-04-04T11:07:29.112Z,57.9
2018-04-04T11:08:30.512Z,56.7
2018-04-04T11:09:31.904Z,56.2
2018-04-04T11:10:33.339Z,57.3
2018-04-04T11:11:34.830Z,59.1
2018-04-04T11:12:36.219Z,60.8
2018-04-04T11:13:37.674Z,60.8
2018-04-04T11:14:39.168Z,60.4
2018-04-04T11:15:40.609Z,60.6
2018-04-04T11:16:42.018Z,59.0
2018-04-04T11:17:43.429Z,56.2
2018-04-04T11:18:44.869Z,55.6
2018-04-04T11:19:46.326Z,56.3
2018-04-04T11:20:47.735Z,56.2
2018-04-04T11:21:49.187Z,56.2
2018-04-04T11:22:50.610Z,54.8
2018-04-04T11:23:52.078Z,53.5
2018-04-04T11:24:53.444Z,53.4
2018-04-04T11:25:54.904Z,53.6
2018-04-04T11:26:56.366Z,54.2
2018-04-04T11:27:57.774Z,56.2
2018-04-04T11:28:59.261Z,57.2
2018-04-04T11:30:00.688Z,57.4
2018-04-04T11:31:02.093Z,57.7
2018-04-04T11:32:03.656Z,58.7
2018-04-04T11:33:05.232Z,58.8
2018-04-04T11:34:06.663Z,59.1
2018-04-04T11:35:08.165Z,58.9
2018-04-04T11:36:09.733Z,57.4
2018-04-04T11:37:11.282Z,57.4
2018-04-04T11:38:12.775Z,57.8
2018-04-04T11:39:14.807Z,59.5
2018-04-04T11:40:16.268Z,60.1
2018-04-04T11:41:17.771Z,59.7
2018-04-04T11:42:19.202Z,57.9
2018-04-04T11:43:20.781Z,55.5
2018-04-04T11:44:22.177Z,54.4
2018-04-04T11:45:23.665Z,54.4
2018-04-04T11:46:25.073Z,53.7
2018-04-04T11:47:26.472Z,52.8
2018-04-04T11:48:27.907Z,50.2
2018-04-04T11:49:29.314Z,47.3
2018-04-04T11:50:30.717Z,47.2
2018-04-04T11:51:32.152Z,48.8
2018-04-04T11:52:33.602Z,48.4
2018-04-04T11:53:35.020Z,46.5
2018-04-04T11:54:36.431Z,46.7
2018-04-04T11:55:37.853Z,47.8
2018-04-04T11:56:39.314Z,48.0
2018-04-04T11:57:40.745Z,46.7
2018-04-04T11:58:42.154Z,46.3
2018-04-04T11:59:43.617Z,45.3
2018-04-04T12:00:45.055Z,44.9
2018-04-04T12:01:46.463Z,44.9
2018-04-04T12:02:47.899Z,45.7
2018-04-04T12:03:49.312Z,45.4
2018-04-04T12:04:50.745Z,45.4
2018-04-04T12:05:52.174Z,46.1
2018-04-04T12:06:54.942Z,43.7
2018-04-04T12:07:56.388Z,43.0
2018-04-04T12:08:57.799Z,41.6
2018-04-04T12:09:59.265Z,40.3
2018-04-04T12:11:00.725Z,41.5
2018-04-04T12:12:02.270Z,41.3
2018-04-04T12:13:03.702Z,40.1
2018-04-04T12:14:05.115Z,39.6
2018-04-04T12:15:06.610Z,39.5
2018-04-04T12:16:08.025Z,40.4
2018-04-04T12:17:09.442Z,41.1
2018-04-04T12:18:10.864Z,40.8
2018-04-04T12:19:12.288Z,39.6
2018-04-04T12:20:13.701Z,39.6
2018-04-04T12:21:15.132Z,38.8
2018-04-04T12:22:16.589Z,38.4
2018-04-04T12:23:18.016Z,38.2
2018-04-04T12:24:19.550Z,39.2
2018-04-04T12:25:20.968Z,40.3
2018-04-04T12:26:22.397Z,40.3
2018-04-04T12:27:23.812Z,40.4
2018-04-04T12:28:25.250Z,39.5
2018-04-04T12:29:26.714Z,41.1
2018-04-04T12:30:28.245Z,41.0
2018-04-04T12:31:29.671Z,40.3
2018-04-04T12:32:31.101Z,41.1
2018-04-04T12:33:32.544Z,41.1
2018-04-04T12:34:33.974Z,42.6
2018-04-04T12:35:35.389Z,43.2
2018-04-04T12:36:36.811Z,45.1
2018-04-04T12:37:38.229Z,46.4
2018-04-04T12:38:39.656Z,48.0
2018-04-04T12:39:41.079Z,49.5
2018-04-04T12:40:42.521Z,50.2
2018-04-04T12:41:43.952Z,52.6
2018-04-04T12:42:45.476Z,53.1
2018-04-04T12:43:46.890Z,52.7
2018-04-04T12:44:48.327Z,53.2
2018-04-04T12:45:49.765Z,54.6
2018-04-04T12:46:51.175Z,55.3
2018-04-04T12:47:52.602Z,54.4
2018-04-04T12:48:54.198Z,53.8
2018-04-04T12:49:55.637Z,53.8
2018-04-04T12:50:57.210Z,53.6
2018-04-04T12:51:59.327Z,53.6
2018-04-04T12:53:00.873Z,53.0
2018-04-04T12:54:02.351Z,53.3
2018-04-04T12:55:03.949Z,53.3
2018-04-04T12:56:05.506Z,53.3
2018-04-04T12:57:06.947Z,54.2
2018-04-04T12:58:08.497Z,53.9
2018-04-04T12:59:09.892Z,54.5
2018-04-04T13:00:11.442Z,53.9
2018-04-04T13:01:12.875Z,54.1
2018-04-04T13:02:14.431Z,54.4
2018-04-04T13:03:15.849Z,55.4
2018-04-04T13:04:17.282Z,55.4
2018-04-04T13:05:20.223Z,54.5
2018-04-04T13:06:21.642Z,54.7
2018-04-04T13:07:23.066Z,53.7
2018-04-04T13:08:24.542Z,54.4
2018-04-04T13:09:25.953Z,54.2
2018-04-04T13:10:27.370Z,54.8
2018-04-04T13:11:28.776Z,54.4
2018-04-04T13:12:30.214Z,53.7
2018-04-04T13:13:31.632Z,54.4
2018-04-04T13:14:33.042Z,53.7
2018-04-04T13:15:35.337Z,52.6
2018-04-04T13:16:36.805Z,52.1
2018-04-04T13:17:38.264Z,52.2
2018-04-04T13:18:39.721Z,51.2
2018-04-04T13:19:41.167Z,51.5
2018-04-04T13:20:42.721Z,52.3
2018-04-04T13:21:44.280Z,53.4
2018-04-04T13:22:46.366Z,54.6
2018-04-04T13:23:47.896Z,54.5
2018-04-04T13:24:49.198Z,53.4
2018-04-04T13:25:50.682Z,52.4
2018-04-04T13:26:52.132Z,53.0